TimeMDT,TemperatureF,Dew PointF,Humidity,Sea Level PressureIn,VisibilityMPH,Wind Direction,Wind SpeedMPH,Gust SpeedMPH,PrecipitationIn,Events,Conditions,WindDirDegrees,DateUTC
12:53 AM,60.1,55.9,86,30.00,10.0,North,4.6,-,N/A,,Mostly Cloudy,360,2013-08-08 06:53:00
1:53 AM,59.0,55.0,87,29.99,10.0,Calm,Calm,-,N/A,,Scattered Clouds,0,2013-08-08 07:53:00
2:53 AM,60.1,55.0,83,29.98,10.0,Calm,Calm,-,N/A,,Scattered Clouds,0,2013-08-08 08:53:00
3:53 AM,57.0,55.0,93,29.98,10.0,Calm,Calm,-,N/A,,Clear,0,2013-08-08 09:53:00
4:53 AM,57.0,55.0,93,29.98,10.0,Calm,Calm,-,N/A,,Scattered Clouds,0,2013-08-08 10:53:00
5:53 AM,57.9,55.0,90,29.99,10.0,NNW,3.5,-,N/A,,Overcast,340,2013-08-08 11:53:00
6:53 AM,57.0,54.0,89,30.02,10.0,Calm,Calm,-,N/A,,Clear,0,2013-08-08 12:53:00
7:53 AM,60.1,57.0,90,30.02,10.0,SSW,4.6,-,N/A,,Clear,200,2013-08-08 13:53:00
8:53 AM,62.1,55.0,78,30.03,10.0,Calm,Calm,-,N/A,,Overcast,0,2013-08-08 14:53:00
9:53 AM,64.9,55.0,70,30.04,10.0,Calm,Calm,-,N/A,,Mostly Cloudy,0,2013-08-08 15:53:00
10:53 AM,68.0,53.1,59,30.04,10.0,Calm,Calm,-,N/A,,Mostly Cloudy,0,2013-08-08 16:53:00
11:53 AM,73.9,51.1,45,30.01,10.0,West,9.2,-,N/A,,Partly Cloudy,270,2013-08-08 17:53:00
12:53 PM,75.0,52.0,44,30.00,10.0,West,6.9,-,N/A,,Scattered Clouds,270,2013-08-08 18:53:00
1:53 PM,79.0,50.0,36,29.98,10.0,Variable,3.5,-,N/A,,Clear,0,2013-08-08 19:53:00
2:53 PM,82.0,44.1,26,29.94,10.0,Variable,6.9,-,N/A,,Clear,0,2013-08-08 20:53:00
3:53 PM,82.9,41.0,23,29.94,10.0,Variable,3.5,-,N/A,,Scattered Clouds,0,2013-08-08 21:53:00
4:23 PM,77.0,46.4,34,30.11,10.0,NE,19.6,27.6,N/A,,Mostly Cloudy,40,2013-08-08 22:23:00
4:53 PM,79.0,45.0,30,29.96,10.0,NE,13.8,-,N/A,,Clear,40,2013-08-08 22:53:00
5:53 PM,75.0,46.9,37,29.97,10.0,ESE,9.2,-,N/A,,Clear,110,2013-08-08 23:53:00
6:53 PM,73.0,46.9,39,30.00,10.0,ESE,8.1,-,N/A,,Partly Cloudy,120,2013-08-09 00:53:00
7:53 PM,71.1,46.9,42,29.97,10.0,East,9.2,18.4,N/A,,Clear,80,2013-08-09 01:53:00
8:53 PM,69.1,48.0,47,29.99,10.0,East,8.1,-,N/A,,Clear,100,2013-08-09 02:53:00
9:53 PM,66.9,48.0,51,30.01,10.0,East,8.1,-,N/A,,Clear,100,2013-08-09 03:53:00
10:53 PM,64.9,50.0,58,30.01,10.0,East,6.9,-,N/A,,Clear,80,2013-08-09 04:53:00
11:53 PM,63.0,48.9,60,30.02,10.0,East,10.4,-,N/A,,Clear,100,2013-08-09 05:53:00